Time;durP1;ratioP1;P1;durP2;ratioP2;P2;SDS_P1;SDS_P2;PMS_P1;PMS_P2;Temp;Humidity;BMP_temperature;BMP_pressure;BME280_temperature;BME280_humidity;BME280_pressure;Samples;Min_cycle;Max_cycle;Signal;HPM_P1;HPM_P2
2022/03/06 00:11:48;;;;;;;6.78;3.00;;;;;;;;;;5015865;28;20085;-84
2022/03/06 00:14:15;;;;;;;6.78;3.50;;;;;;;;;;5017803;28;20064;-92
2022/03/06 00:16:42;;;;;;;7.57;4.03;;;;;;;;;;4975806;28;20382;-92
2022/03/06 00:19:10;;;;;;;7.22;3.78;;;;;;;;;;5011300;28;20142;-92
2022/03/06 00:21:39;;;;;;;7.53;3.80;;;;;;;;;;5001893;28;20104;-92
2022/03/06 00:24:07;;;;;;;6.93;3.53;;;;;;;;;;4994095;28;20050;-92
2022/03/06 00:26:35;;;;;;;9.50;3.70;;;;;;;;;;5019859;28;20074;-92
2022/03/06 00:29:03;;;;;;;7.28;3.58;;;;;;;;;;4997767;28;20046;-85
2022/03/06 00:31:31;;;;;;;6.38;3.35;;;;;;;;;;5008405;28;20137;-85
2022/03/06 00:33:58;;;;;;;6.95;3.17;;;;;;;;;;5012046;28;20054;-85
2022/03/06 00:36:26;;;;;;;8.00;3.72;;;;;;;;;;5014753;28;20084;-91
2022/03/06 00:38:54;;;;;;;5.85;3.28;;;;;;;;;;4993384;28;20133;-91
2022/03/06 00:41:23;;;;;;;9.32;3.70;;;;;;;;;;4996284;28;20458;-91
2022/03/06 00:43:50;;;;;;;7.47;3.70;;;;;;;;;;5007738;28;20569;-91
2022/03/06 00:46:18;;;;;;;8.35;3.42;;;;;;;;;;5004890;28;20137;-91
2022/03/06 00:48:46;;;;;;;6.82;3.65;;;;;;;;;;4995242;28;20549;-91
2022/03/06 00:51:15;;;;;;;11.07;3.90;;;;;;;;;;5015473;28;20049;-91
2022/03/06 00:53:43;;;;;;;8.00;3.78;;;;;;;;;;5004687;28;20052;-91
2022/03/06 00:56:10;;;;;;;7.32;3.90;;;;;;;;;;5010217;28;20038;-91
2022/03/06 00:58:38;;;;;;;7.93;4.25;;;;;;;;;;5006567;28;20042;-91
2022/03/06 01:01:06;;;;;;;8.27;3.90;;;;;;;;;;4994171;28;20053;-91
2022/03/06 01:03:37;;;;;;;7.35;3.65;;;;;;;;;;5010904;28;20042;-93
2022/03/06 01:06:04;;;;;;;11.60;3.53;;;;;;;;;;5008274;28;20038;-93
2022/03/06 01:08:33;;;;;;;7.78;3.78;;;;;;;;;;4987805;28;20060;-92
2022/03/06 01:11:02;;;;;;;6.53;3.42;;;;;;;;;;5012995;28;20054;-91
2022/03/06 01:13:31;;;;;;;8.05;3.47;;;;;;;;;;4991863;28;20509;-91
2022/03/06 01:15:58;;;;;;;6.15;3.20;;;;;;;;;;5007552;28;20038;-91
2022/03/06 01:18:33;;;;;;;8.60;4.05;;;;;;;;;;5006983;28;20156;-85
2022/03/06 01:21:00;;;;;;;7.82;3.67;;;;;;;;;;5013558;28;20046;-85
2022/03/06 01:23:28;;;;;;;6.38;3.65;;;;;;;;;;5014177;28;20042;-86
2022/03/06 01:25:56;;;;;;;8.88;4.30;;;;;;;;;;5012780;28;20618;-89
2022/03/06 01:28:24;;;;;;;7.78;3.58;;;;;;;;;;5017150;28;20050;-89
2022/03/06 01:30:52;;;;;;;7.38;3.33;;;;;;;;;;5008018;28;20057;-89
2022/03/06 01:33:20;;;;;;;9.32;3.38;;;;;;;;;;5001349;28;20064;-90
2022/03/06 01:35:48;;;;;;;9.23;3.72;;;;;;;;;;5014452;28;20068;-90
2022/03/06 01:38:16;;;;;;;7.25;3.60;;;;;;;;;;5001186;28;20050;-90
2022/03/06 01:40:44;;;;;;;5.13;3.22;;;;;;;;;;4997070;28;20052;-89
2022/03/06 01:43:12;;;;;;;6.65;3.42;;;;;;;;;;4994831;28;20480;-88
2022/03/06 01:45:40;;;;;;;8.73;3.22;;;;;;;;;;5008093;28;20046;-87
2022/03/06 01:48:09;;;;;;;6.60;3.28;;;;;;;;;;5009916;28;20055;-88
2022/03/06 01:50:37;;;;;;;9.88;3.63;;;;;;;;;;5017833;28;20523;-88
2022/03/06 01:53:08;;;;;;;7.50;3.42;;;;;;;;;;5007501;28;20057;-88
2022/03/06 01:55:35;;;;;;;7.15;3.55;;;;;;;;;;5005886;28;20448;-87
2022/03/06 01:58:05;;;;;;;6.30;3.42;;;;;;;;;;5023327;28;20062;-90
2022/03/06 02:00:36;;;;;;;6.75;3.30;;;;;;;;;;5016725;28;20156;-91
2022/03/06 02:03:05;;;;;;;5.80;3.03;;;;;;;;;;5009149;28;20073;-91
2022/03/06 02:05:32;;;;;;;9.07;3.60;;;;;;;;;;5012010;28;20050;-91
2022/03/06 02:08:00;;;;;;;9.32;3.17;;;;;;;;;;4999815;28;20108;-92
2022/03/06 02:10:28;;;;;;;8.68;3.50;;;;;;;;;;5016780;28;20129;-92
2022/03/06 02:12:58;;;;;;;7.10;2.75;;;;;;;;;;5014683;28;20164;-91
2022/03/06 02:15:25;;;;;;;6.47;3.38;;;;;;;;;;4998117;28;20061;-91
2022/03/06 02:17:52;;;;;;;5.63;3.40;;;;;;;;;;5005755;28;20050;-91
2022/03/06 02:20:22;;;;;;;8.48;3.80;;;;;;;;;;5012260;28;20128;-91
2022/03/06 02:22:53;;;;;;;6.65;2.90;;;;;;;;;;5012341;28;20575;-91
2022/03/06 02:25:23;;;;;;;6.18;2.90;;;;;;;;;;5021210;28;20137;-91
2022/03/06 02:27:53;;;;;;;5.90;3.35;;;;;;;;;;5015675;28;20046;-91
2022/03/06 02:30:27;;;;;;;9.77;3.25;;;;;;;;;;5005779;28;20042;-86
2022/03/06 02:32:57;;;;;;;6.22;3.22;;;;;;;;;;5005707;28;20057;-84
2022/03/06 02:35:26;;;;;;;8.27;3.58;;;;;;;;;;5017817;28;20045;-88
2022/03/06 02:37:55;;;;;;;8.68;3.10;;;;;;;;;;5013709;28;20140;-88
2022/03/06 02:40:23;;;;;;;5.90;3.38;;;;;;;;;;5013783;28;20056;-87
2022/03/06 02:42:52;;;;;;;8.32;3.13;;;;;;;;;;5017702;28;20050;-87
2022/03/06 02:45:23;;;;;;;7.20;3.08;;;;;;;;;;5011349;28;20050;-87
2022/03/06 02:47:53;;;;;;;5.53;2.80;;;;;;;;;;5015167;28;20057;-87
2022/03/06 02:50:23;;;;;;;6.78;3.25;;;;;;;;;;4999815;28;21277;-87
2022/03/06 02:52:52;;;;;;;8.25;3.22;;;;;;;;;;5014213;28;20482;-88
2022/03/06 02:55:21;;;;;;;6.70;3.28;;;;;;;;;;5013877;28;20073;-88
2022/03/06 02:57:49;;;;;;;7.75;3.25;;;;;;;;;;5003581;28;20386;-92
2022/03/06 03:00:19;;;;;;;7.65;3.30;;;;;;;;;;5013317;28;20078;-92
2022/03/06 03:02:48;;;;;;;8.18;3.47;;;;;;;;;;5021765;28;20046;-91
2022/03/06 03:05:17;;;;;;;7.50;3.30;;;;;;;;;;5017343;28;20418;-91
2022/03/06 03:07:48;;;;;;;4.97;3.08;;;;;;;;;;5007979;28;20050;-91
2022/03/06 03:10:18;;;;;;;7.55;3.42;;;;;;;;;;5014771;28;20054;-85
2022/03/06 03:12:47;;;;;;;7.97;3.47;;;;;;;;;;5010454;28;20062;-85
2022/03/06 03:15:15;;;;;;;8.77;3.40;;;;;;;;;;5013646;28;20125;-91
2022/03/06 03:17:43;;;;;;;6.43;2.90;;;;;;;;;;5007789;28;20049;-91
2022/03/06 03:20:11;;;;;;;7.65;3.30;;;;;;;;;;5003871;28;20085;-91
2022/03/06 03:22:39;;;;;;;6.82;2.83;;;;;;;;;;5003985;28;20056;-92
2022/03/06 03:25:07;;;;;;;7.57;3.10;;;;;;;;;;5001980;28;20458;-91
2022/03/06 03:27:35;;;;;;;6.63;2.90;;;;;;;;;;5011059;28;20049;-91
2022/03/06 03:30:04;;;;;;;6.38;2.58;;;;;;;;;;5012250;28;20052;-91
2022/03/06 03:32:32;;;;;;;5.00;2.45;;;;;;;;;;5002552;28;20045;-91
2022/03/06 03:35:00;;;;;;;5.13;2.75;;;;;;;;;;5008447;28;20133;-91
2022/03/06 03:37:28;;;;;;;7.15;2.65;;;;;;;;;;5014145;28;20042;-85
2022/03/06 03:39:56;;;;;;;5.45;2.40;;;;;;;;;;5016263;28;20084;-84
2022/03/06 03:42:24;;;;;;;5.60;2.70;;;;;;;;;;5013307;28;20050;-91
2022/03/06 03:44:52;;;;;;;7.03;2.45;;;;;;;;;;4987895;28;21720;-91
2022/03/06 03:47:21;;;;;;;6.57;3.15;;;;;;;;;;5012743;28;20107;-91
2022/03/06 03:49:48;;;;;;;4.15;2.00;;;;;;;;;;5010673;28;20058;-91
2022/03/06 03:52:16;;;;;;;5.60;2.85;;;;;;;;;;5011719;28;20462;-91
2022/03/06 03:54:44;;;;;;;4.78;2.80;;;;;;;;;;5003655;28;20046;-91
2022/03/06 03:57:13;;;;;;;4.95;2.20;;;;;;;;;;5010973;28;20112;-91
2022/03/06 03:59:41;;;;;;;5.57;2.30;;;;;;;;;;4993856;28;20489;-91
2022/03/06 04:02:08;;;;;;;8.05;2.50;;;;;;;;;;5009358;28;20074;-91
2022/03/06 04:04:36;;;;;;;7.38;2.25;;;;;;;;;;5019843;28;20180;-91
2022/03/06 04:07:04;;;;;;;5.30;2.47;;;;;;;;;;5006878;28;20046;-91
2022/03/06 04:09:32;;;;;;;7.15;2.35;;;;;;;;;;5012963;28;20061;-85
2022/03/06 04:12:01;;;;;;;7.95;2.20;;;;;;;;;;5014157;28;20797;-85
2022/03/06 04:14:28;;;;;;;4.53;2.05;;;;;;;;;;5011386;28;20061;-85
2022/03/06 04:16:56;;;;;;;3.97;2.40;;;;;;;;;;5015300;28;20045;-84
2022/03/06 04:19:24;;;;;;;7.80;2.17;;;;;;;;;;5010106;28;20049;-84
2022/03/06 04:21:53;;;;;;;3.88;2.13;;;;;;;;;;5007950;28;20072;-85
2022/03/06 04:24:20;;;;;;;3.30;2.10;;;;;;;;;;5011973;28;20049;-85
2022/03/06 04:26:48;;;;;;;4.32;2.20;;;;;;;;;;5014363;28;20123;-90
2022/03/06 04:29:16;;;;;;;4.03;2.17;;;;;;;;;;5007471;28;20042;-90
2022/03/06 04:31:44;;;;;;;3.80;2.10;;;;;;;;;;5014050;28;20572;-90
2022/03/06 04:34:12;;;;;;;4.65;2.30;;;;;;;;;;5010706;28;20060;-90
2022/03/06 04:36:40;;;;;;;5.30;2.20;;;;;;;;;;4993238;28;20061;-90
2022/03/06 04:39:08;;;;;;;4.35;2.15;;;;;;;;;;5007241;28;20049;-91
2022/03/06 04:41:36;;;;;;;4.65;2.35;;;;;;;;;;5011689;28;20054;-90
2022/03/06 04:44:04;;;;;;;7.40;2.60;;;;;;;;;;5005491;28;20081;-92
2022/03/06 04:46:32;;;;;;;7.38;2.47;;;;;;;;;;5007387;28;20058;-91
2022/03/06 04:49:00;;;;;;;7.82;2.42;;;;;;;;;;5006707;28;20408;-91
2022/03/06 04:51:28;;;;;;;6.78;2.33;;;;;;;;;;5014865;28;20119;-91
2022/03/06 04:53:56;;;;;;;4.40;2.08;;;;;;;;;;5012124;28;20153;-91
2022/03/06 04:56:24;;;;;;;5.28;2.47;;;;;;;;;;4992398;28;20489;-91
2022/03/06 04:58:52;;;;;;;4.13;2.40;;;;;;;;;;4999962;28;20057;-91
2022/03/06 05:01:20;;;;;;;5.97;2.33;;;;;;;;;;5004374;28;20048;-91
2022/03/06 05:03:50;;;;;;;4.43;2.30;;;;;;;;;;5010191;28;20133;-92
2022/03/06 05:06:18;;;;;;;4.60;2.10;;;;;;;;;;4999455;28;20045;-93
2022/03/06 05:08:46;;;;;;;4.43;2.20;;;;;;;;;;4992140;28;20417;-93
2022/03/06 05:11:14;;;;;;;3.97;2.10;;;;;;;;;;4994584;28;20045;-93
2022/03/06 05:13:42;;;;;;;5.03;2.42;;;;;;;;;;4992758;28;20081;-93
2022/03/06 05:16:10;;;;;;;3.70;2.00;;;;;;;;;;5008901;28;20497;-95
2022/03/06 05:18:38;;;;;;;7.28;2.28;;;;;;;;;;4984900;28;20061;-94
2022/03/06 05:21:06;;;;;;;5.32;2.20;;;;;;;;;;4998228;28;20046;-93
2022/03/06 05:23:34;;;;;;;9.00;2.40;;;;;;;;;;4986674;28;20545;-94
2022/03/06 05:26:02;;;;;;;4.75;2.13;;;;;;;;;;4993936;28;20068;-86
2022/03/06 05:28:30;;;;;;;4.80;2.45;;;;;;;;;;5003454;28;20046;-86
2022/03/06 05:30:58;;;;;;;4.20;2.15;;;;;;;;;;5012791;28;20062;-86
2022/03/06 05:33:26;;;;;;;4.63;1.98;;;;;;;;;;5005236;28;20050;-89
2022/03/06 05:35:54;;;;;;;3.97;2.38;;;;;;;;;;5008649;28;20049;-88
2022/03/06 05:38:22;;;;;;;5.80;2.20;;;;;;;;;;5019890;28;20054;-88
2022/03/06 05:40:50;;;;;;;5.30;1.95;;;;;;;;;;5010651;28;20045;-89
2022/03/06 05:43:18;;;;;;;5.47;2.20;;;;;;;;;;5013838;28;20076;-89
2022/03/06 05:45:50;;;;;;;6.43;2.70;;;;;;;;;;5017316;28;20073;-90
2022/03/06 05:48:19;;;;;;;3.75;2.22;;;;;;;;;;5003472;28;20126;-89
2022/03/06 05:50:46;;;;;;;4.00;2.08;;;;;;;;;;4997587;28;20054;-89
2022/03/06 05:53:14;;;;;;;4.70;2.53;;;;;;;;;;5000693;28;20504;-89
2022/03/06 05:55:42;;;;;;;4.60;2.30;;;;;;;;;;5011713;28;20053;-90
2022/03/06 05:58:10;;;;;;;4.97;1.90;;;;;;;;;;5012296;28;20513;-88
2022/03/06 06:00:38;;;;;;;5.32;2.58;;;;;;;;;;5012833;28;20409;-90
2022/03/06 06:03:06;;;;;;;3.50;1.90;;;;;;;;;;5012270;28;20054;-90
2022/03/06 06:05:34;;;;;;;4.18;2.15;;;;;;;;;;5017448;28;20037;-91
2022/03/06 06:08:02;;;;;;;9.60;3.83;;;;;;;;;;5018323;28;20072;-92
2022/03/06 06:10:30;;;;;;;16.48;7.47;;;;;;;;;;5010184;28;20062;-88
2022/03/06 06:12:58;;;;;;;14.90;5.07;;;;;;;;;;5008646;28;20442;-88
2022/03/06 06:15:26;;;;;;;7.13;4.15;;;;;;;;;;5013170;28;20050;-86
2022/03/06 06:17:53;;;;;;;7.93;3.30;;;;;;;;;;5011334;28;20108;-87
2022/03/06 06:20:24;;;;;;;4.25;2.72;;;;;;;;;;5003351;28;20101;-87
2022/03/06 06:22:53;;;;;;;5.57;2.90;;;;;;;;;;5019862;28;20041;-86
2022/03/06 06:25:20;;;;;;;7.45;2.22;;;;;;;;;;5009410;28;20069;-87
2022/03/06 06:27:48;;;;;;;4.00;2.30;;;;;;;;;;5009405;28;20576;-87
2022/03/06 06:30:16;;;;;;;3.88;1.98;;;;;;;;;;5016931;28;20046;-87
2022/03/06 06:32:44;;;;;;;5.50;2.40;;;;;;;;;;5010904;28;20088;-87
2022/03/06 06:35:12;;;;;;;3.85;2.15;;;;;;;;;;5003624;28;20137;-88
2022/03/06 06:37:40;;;;;;;6.95;3.22;;;;;;;;;;5013542;28;20049;-87
2022/03/06 06:40:08;;;;;;;5.90;2.58;;;;;;;;;;5001774;28;20062;-86
2022/03/06 06:42:36;;;;;;;5.32;2.35;;;;;;;;;;5011379;28;20062;-87
2022/03/06 06:45:04;;;;;;;6.88;2.47;;;;;;;;;;5012493;28;20126;-86
2022/03/06 06:47:32;;;;;;;4.22;2.20;;;;;;;;;;5003814;28;20501;-87
2022/03/06 06:50:00;;;;;;;5.50;2.10;;;;;;;;;;5013119;28;20145;-88
2022/03/06 06:52:28;;;;;;;3.70;2.00;;;;;;;;;;5017007;28;20179;-88
2022/03/06 06:54:55;;;;;;;4.50;2.33;;;;;;;;;;5010756;28;20130;-87
2022/03/06 06:57:24;;;;;;;5.07;2.30;;;;;;;;;;5008517;28;20049;-85
2022/03/06 06:59:52;;;;;;;5.95;2.33;;;;;;;;;;5013636;28;20107;-85
2022/03/06 07:02:20;;;;;;;6.45;2.03;;;;;;;;;;5007649;28;20695;-84
2022/03/06 07:04:48;;;;;;;8.02;2.38;;;;;;;;;;5011216;28;20140;-84
2022/03/06 07:07:16;;;;;;;5.75;2.25;;;;;;;;;;5019941;28;20038;-85
2022/03/06 07:09:44;;;;;;;7.00;2.60;;;;;;;;;;5012916;28;20085;-85
2022/03/06 07:12:12;;;;;;;5.28;2.20;;;;;;;;;;5010120;28;20065;-85
2022/03/06 07:14:39;;;;;;;5.25;2.22;;;;;;;;;;5019015;28;20061;-85
2022/03/06 07:17:08;;;;;;;5.43;2.58;;;;;;;;;;5008949;28;20762;-85
2022/03/06 07:19:36;;;;;;;7.90;2.80;;;;;;;;;;5013507;28;20058;-85
2022/03/06 07:22:04;;;;;;;6.63;3.08;;;;;;;;;;5019612;28;20123;-85
2022/03/06 07:24:32;;;;;;;7.10;2.53;;;;;;;;;;4991222;28;20060;-85
2022/03/06 07:27:00;;;;;;;5.45;3.00;;;;;;;;;;5004681;28;20054;-85
2022/03/06 07:29:28;;;;;;;5.40;2.90;;;;;;;;;;5011461;28;20137;-85
2022/03/06 07:31:56;;;;;;;4.97;2.83;;;;;;;;;;5000676;28;20161;-84
2022/03/06 07:34:24;;;;;;;4.60;2.50;;;;;;;;;;5009579;28;20045;-84
2022/03/06 07:36:52;;;;;;;6.80;2.63;;;;;;;;;;5011931;28;20651;-85
2022/03/06 07:39:20;;;;;;;5.90;2.08;;;;;;;;;;5008607;28;20662;-85
2022/03/06 07:41:48;;;;;;;6.85;2.92;;;;;;;;;;5008103;28;20054;-85
2022/03/06 07:44:16;;;;;;;5.85;2.33;;;;;;;;;;5008840;28;20167;-85
2022/03/06 07:46:44;;;;;;;5.18;2.53;;;;;;;;;;5009602;28;20045;-85
2022/03/06 07:49:12;;;;;;;8.45;4.78;;;;;;;;;;4990289;28;20131;-85
2022/03/06 07:51:40;;;;;;;8.10;4.97;;;;;;;;;;5006024;28;20061;-85
2022/03/06 07:54:13;;;;;;;6.40;3.53;;;;;;;;;;5009052;28;20469;-84
2022/03/06 07:56:49;;;;;;;5.72;3.38;;;;;;;;;;5008559;28;20132;-86
2022/03/06 07:59:16;;;;;;;4.47;2.55;;;;;;;;;;5009878;28;20049;-85
2022/03/06 08:01:44;;;;;;;5.75;2.30;;;;;;;;;;5002085;28;20077;-85
2022/03/06 08:04:12;;;;;;;6.53;2.63;;;;;;;;;;5007761;28;20049;-85
2022/03/06 08:06:40;;;;;;;4.95;2.35;;;;;;;;;;5013563;28;20057;-83
2022/03/06 08:09:08;;;;;;;5.47;2.45;;;;;;;;;;5010497;28;20050;-83
2022/03/06 08:11:36;;;;;;;4.05;2.20;;;;;;;;;;5008745;28;20054;-84
2022/03/06 08:14:04;;;;;;;5.82;2.58;;;;;;;;;;5013825;28;20052;-83
2022/03/06 08:16:32;;;;;;;6.78;2.42;;;;;;;;;;5010373;28;20073;-85
2022/03/06 08:19:00;;;;;;;7.13;2.67;;;;;;;;;;5010846;28;20389;-85
2022/03/06 08:21:30;;;;;;;5.82;2.72;;;;;;;;;;5018896;28;20054;-85
2022/03/06 08:24:00;;;;;;;6.32;2.70;;;;;;;;;;5015408;28;20129;-85
2022/03/06 08:26:28;;;;;;;5.95;2.63;;;;;;;;;;4996883;28;20402;-84
2022/03/06 08:28:56;;;;;;;6.65;2.65;;;;;;;;;;5002591;28;20045;-85
2022/03/06 08:31:24;;;;;;;5.13;2.40;;;;;;;;;;5014654;28;20123;-85
2022/03/06 08:33:53;;;;;;;11.60;2.50;;;;;;;;;;5011807;28;20069;-85
2022/03/06 08:36:20;;;;;;;3.95;2.08;;;;;;;;;;5016656;28;20057;-84
2022/03/06 08:38:48;;;;;;;4.70;2.38;;;;;;;;;;4999160;28;20137;-84
2022/03/06 08:41:16;;;;;;;4.50;2.30;;;;;;;;;;5004631;28;20116;-84
2022/03/06 08:43:44;;;;;;;5.75;2.83;;;;;;;;;;5003152;28;20477;-84
2022/03/06 08:46:12;;;;;;;5.50;2.20;;;;;;;;;;5004386;28;20053;-85
2022/03/06 08:48:40;;;;;;;3.15;1.75;;;;;;;;;;4992425;28;20109;-84
2022/03/06 08:51:10;;;;;;;3.92;2.10;;;;;;;;;;5013709;28;20061;-85
2022/03/06 08:53:40;;;;;;;5.13;2.30;;;;;;;;;;5007052;28;20046;-85
2022/03/06 08:56:08;;;;;;;4.43;2.00;;;;;;;;;;5007428;28;20154;-84
2022/03/06 08:58:36;;;;;;;3.33;1.40;;;;;;;;;;5011860;28;20603;-84
2022/03/06 09:01:04;;;;;;;2.20;1.20;;;;;;;;;;4996101;28;20046;-84
2022/03/06 09:03:32;;;;;;;2.90;1.50;;;;;;;;;;5007111;28;20134;-83
2022/03/06 09:06:00;;;;;;;6.38;1.83;;;;;;;;;;5003854;28;20073;-84
2022/03/06 09:08:28;;;;;;;3.22;1.52;;;;;;;;;;5010327;28;20060;-81
2022/03/06 09:10:56;;;;;;;2.90;1.85;;;;;;;;;;5002608;28;20053;-81
2022/03/06 09:13:24;;;;;;;6.15;2.30;;;;;;;;;;5015143;28;20061;-81
2022/03/06 09:15:52;;;;;;;3.33;1.60;;;;;;;;;;5000644;28;20661;-82
2022/03/06 09:18:20;;;;;;;2.85;1.80;;;;;;;;;;4988170;28;20049;-84
2022/03/06 09:20:48;;;;;;;3.85;1.98;;;;;;;;;;5014237;28;20057;-84
2022/03/06 09:23:16;;;;;;;6.13;2.00;;;;;;;;;;5013034;28;20541;-85
2022/03/06 09:25:44;;;;;;;4.75;2.08;;;;;;;;;;5006503;28;20050;-83
2022/03/06 09:28:12;;;;;;;3.80;1.77;;;;;;;;;;5018224;28;20049;-83
2022/03/06 09:30:40;;;;;;;5.80;2.03;;;;;;;;;;5008712;28;20056;-83
2022/03/06 09:33:08;;;;;;;7.15;2.10;;;;;;;;;;5004878;28;20050;-83
2022/03/06 09:35:36;;;;;;;5.03;2.10;;;;;;;;;;5007934;28;20050;-84
2022/03/06 09:38:04;;;;;;;6.22;2.13;;;;;;;;;;4999898;28;20074;-84
2022/03/06 09:40:32;;;;;;;3.22;2.08;;;;;;;;;;5013486;28;20531;-84
2022/03/06 09:43:00;;;;;;;5.18;2.08;;;;;;;;;;5016504;28;20077;-83
2022/03/06 09:45:34;;;;;;;3.55;1.75;;;;;;;;;;5011915;28;20069;-81
2022/03/06 09:48:03;;;;;;;3.50;1.70;;;;;;;;;;5016762;28;20133;-81
2022/03/06 09:50:30;;;;;;;4.82;2.25;;;;;;;;;;5014205;28;20058;-81
2022/03/06 09:52:58;;;;;;;4.13;2.15;;;;;;;;;;5007085;28;20336;-82
2022/03/06 09:55:27;;;;;;;4.32;2.00;;;;;;;;;;5010105;28;20132;-84
2022/03/06 09:57:59;;;;;;;5.05;2.30;;;;;;;;;;5014959;28;20068;-85
2022/03/06 10:00:32;;;;;;;3.83;2.03;;;;;;;;;;5010288;28;20057;-85
2022/03/06 10:03:03;;;;;;;3.78;2.03;;;;;;;;;;5006404;28;20045;-85
2022/03/06 10:05:36;;;;;;;6.45;2.40;;;;;;;;;;5011568;28;20061;-84
2022/03/06 10:08:19;;;;;;;5.55;2.00;;;;;;;;;;5001796;28;20045;-83
2022/03/06 10:10:48;;;;;;;4.53;2.13;;;;;;;;;;5016666;28;20053;-83
2022/03/06 10:13:22;;;;;;;4.50;2.50;;;;;;;;;;5017529;28;20056;-83
2022/03/06 10:16:10;;;;;;;13.13;4.60;;;;;;;;;;5013620;28;20046;-83
2022/03/06 10:18:44;;;;;;;5.05;2.72;;;;;;;;;;5020368;28;20049;-83
2022/03/06 10:21:26;;;;;;;6.00;2.70;;;;;;;;;;5014419;28;20054;-83
2022/03/06 10:23:59;;;;;;;4.43;2.75;;;;;;;;;;5013379;28;20042;-83
2022/03/06 10:26:29;;;;;;;3.58;2.17;;;;;;;;;;5016660;28;20073;-83
2022/03/06 10:28:59;;;;;;;5.13;2.45;;;;;;;;;;5016808;28;20141;-83
2022/03/06 10:31:28;;;;;;;6.85;3.13;;;;;;;;;;5008864;28;20080;-83
2022/03/06 10:34:03;;;;;;;5.93;2.30;;;;;;;;;;5017809;28;20070;-83
2022/03/06 10:36:37;;;;;;;4.22;2.40;;;;;;;;;;5017073;28;20056;-83
2022/03/06 10:39:22;;;;;;;5.50;2.70;;;;;;;;;;5004077;28;20075;-84
2022/03/06 10:41:52;;;;;;;5.93;2.42;;;;;;;;;;5016042;28;20177;-83
2022/03/06 10:44:22;;;;;;;4.85;2.40;;;;;;;;;;5011541;28;20046;-82
2022/03/06 10:47:04;;;;;;;5.07;2.40;;;;;;;;;;5005155;28;20072;-84
2022/03/06 10:49:32;;;;;;;6.18;2.33;;;;;;;;;;5009844;28;20145;-82
2022/03/06 10:52:17;;;;;;;5.40;2.28;;;;;;;;;;5005164;28;20058;-84
2022/03/06 10:54:57;;;;;;;3.88;2.60;;;;;;;;;;5007740;28;20046;-84
2022/03/06 10:57:26;;;;;;;4.43;2.03;;;;;;;;;;5013226;28;20801;-85
2022/03/06 10:59:55;;;;;;;3.85;2.20;;;;;;;;;;5011161;28;20073;-85
2022/03/06 11:02:24;;;;;;;3.20;1.92;;;;;;;;;;5016128;28;20140;-85
2022/03/06 11:04:53;;;;;;;4.80;2.28;;;;;;;;;;5009927;28;20065;-86
2022/03/06 11:07:23;;;;;;;3.95;1.77;;;;;;;;;;5010518;28;20137;-86
2022/03/06 11:09:51;;;;;;;3.15;1.95;;;;;;;;;;5011709;28;20046;-86
2022/03/06 11:12:18;;;;;;;6.57;2.65;;;;;;;;;;5013747;28;20054;-86
2022/03/06 11:14:47;;;;;;;6.22;2.30;;;;;;;;;;5012782;28;20420;-85
2022/03/06 11:17:14;;;;;;;4.35;2.10;;;;;;;;;;5015798;28;20049;-85
2022/03/06 11:19:42;;;;;;;4.13;2.13;;;;;;;;;;5006638;28;20061;-85
2022/03/06 11:22:24;;;;;;;6.15;2.20;;;;;;;;;;5015497;28;20545;-86
2022/03/06 11:24:57;;;;;;;3.95;1.98;;;;;;;;;;5013571;28;20485;-85
2022/03/06 11:27:50;;;;;;;6.30;2.30;;;;;;;;;;5009465;28;20066;-85
2022/03/06 11:30:20;;;;;;;4.53;2.05;;;;;;;;;;5007236;28;20056;-85
2022/03/06 11:33:02;;;;;;;5.03;2.13;;;;;;;;;;5018196;28;20052;-84
2022/03/06 11:35:41;;;;;;;5.90;2.08;;;;;;;;;;5013019;28;20041;-86
2022/03/06 11:38:10;;;;;;;4.05;2.20;;;;;;;;;;5010964;28;20088;-85
2022/03/06 11:40:52;;;;;;;5.70;2.25;;;;;;;;;;5011338;28;20235;-85
2022/03/06 11:43:31;;;;;;;6.90;2.47;;;;;;;;;;5008734;28;20077;-85
2022/03/06 11:46:17;;;;;;;7.60;2.63;;;;;;;;;;5010573;28;20053;-86
2022/03/06 11:48:44;;;;;;;5.38;2.17;;;;;;;;;;5007590;28;20123;-86
2022/03/06 11:51:15;;;;;;;5.75;2.58;;;;;;;;;;5006993;28;20045;-85
2022/03/06 11:53:52;;;;;;;4.90;2.70;;;;;;;;;;5003386;28;20045;-85
2022/03/06 11:56:35;;;;;;;4.90;2.22;;;;;;;;;;5006453;28;20096;-86
2022/03/06 11:59:17;;;;;;;4.20;2.10;;;;;;;;;;5000567;28;20046;-86
2022/03/06 12:01:46;;;;;;;7.78;2.42;;;;;;;;;;5010851;28;20054;-86
2022/03/06 12:04:16;;;;;;;9.88;2.40;;;;;;;;;;4997572;28;20097;-81
2022/03/06 12:06:48;;;;;;;5.82;2.28;;;;;;;;;;5003867;28;20416;-82
2022/03/06 12:09:22;;;;;;;8.68;2.35;;;;;;;;;;5012987;28;20129;-83
2022/03/06 12:11:52;;;;;;;5.82;2.42;;;;;;;;;;5003370;28;20050;-83
2022/03/06 12:14:28;;;;;;;4.93;2.85;;;;;;;;;;5010822;28;20422;-83
2022/03/06 12:17:07;;;;;;;5.05;2.53;;;;;;;;;;5018244;28;20053;-83
2022/03/06 12:19:44;;;;;;;8.27;2.47;;;;;;;;;;5008764;28;20449;-85
2022/03/06 12:22:19;;;;;;;9.02;3.17;;;;;;;;;;5010979;28;20059;-85
2022/03/06 12:24:48;;;;;;;5.28;2.55;;;;;;;;;;5012468;28;20136;-85
2022/03/06 12:27:23;;;;;;;6.60;3.03;;;;;;;;;;5010448;28;20411;-85
2022/03/06 12:29:52;;;;;;;6.78;2.95;;;;;;;;;;5012537;28;20135;-85
2022/03/06 12:32:28;;;;;;;6.53;2.80;;;;;;;;;;5011139;28;20050;-86
2022/03/06 12:35:04;;;;;;;9.27;3.25;;;;;;;;;;5008952;28;20057;-85
2022/03/06 12:37:40;;;;;;;5.10;2.70;;;;;;;;;;5001568;28;20098;-84
2022/03/06 12:40:17;;;;;;;4.72;3.00;;;;;;;;;;5010818;28;20813;-85
2022/03/06 12:42:46;;;;;;;7.32;2.90;;;;;;;;;;5005903;28;20050;-85
2022/03/06 12:45:16;;;;;;;5.43;2.60;;;;;;;;;;5013021;28;20053;-86
2022/03/06 12:47:45;;;;;;;5.40;2.80;;;;;;;;;;5007333;28;20419;-86
2022/03/06 12:50:19;;;;;;;5.50;2.83;;;;;;;;;;5007183;28;20487;-87
2022/03/06 12:52:47;;;;;;;7.13;2.95;;;;;;;;;;5013294;28;20137;-87
2022/03/06 12:55:18;;;;;;;7.13;2.65;;;;;;;;;;5003643;28;20072;-85
2022/03/06 12:57:48;;;;;;;4.50;2.70;;;;;;;;;;5009299;28;20490;-85
2022/03/06 13:00:28;;;;;;;4.97;2.80;;;;;;;;;;5009014;28;20041;-86
2022/03/06 13:03:07;;;;;;;5.85;3.00;;;;;;;;;;5009015;28;20073;-86
2022/03/06 13:05:38;;;;;;;4.82;2.40;;;;;;;;;;5004509;28;20053;-87
2022/03/06 13:08:07;;;;;;;5.35;2.83;;;;;;;;;;5011160;28;20050;-83
2022/03/06 13:10:36;;;;;;;4.88;2.50;;;;;;;;;;5010073;28;20056;-87
2022/03/06 13:13:06;;;;;;;5.75;2.50;;;;;;;;;;5007515;28;20052;-86
2022/03/06 13:15:34;;;;;;;7.63;3.50;;;;;;;;;;5017870;28;20133;-86
2022/03/06 13:31:11;;;;;;;5.70;2.60;;;;;;;;;;5694530;22;15065802;-85
2022/03/06 13:34:21;;;;;;;4.65;2.80;;;;;;;;;;6351925;22;20079;-83
2022/03/06 13:37:55;;;;;;;6.63;2.50;;;;;;;;;;6352654;22;20072;-83
2022/03/06 13:40:46;;;;;;;5.15;2.72;;;;;;;;;;6320790;22;20045;-86
2022/03/06 13:43:35;;;;;;;10.90;2.55;;;;;;;;;;6354130;22;20018;-87
2022/03/06 13:46:21;;;;;;;7.25;2.80;;;;;;;;;;6303071;22;20442;-86
2022/03/06 13:49:14;;;;;;;5.57;2.53;;;;;;;;;;6378828;22;20514;-86
2022/03/06 13:52:51;;;;;;;6.65;2.75;;;;;;;;;;6276529;22;20022;-84
2022/03/06 13:56:35;;;;;;;;;;;;;;;;;;6369730;22;20022;-84
2022/03/06 13:59:45;;;;;;;6.43;2.65;;;;;;;;;;6384499;22;20376;-82
2022/03/06 14:02:26;;;;;;;7.43;2.78;;;;;;;;;;6342506;22;20614;-82
2022/03/06 14:05:48;;;;;;;5.03;2.60;;;;;;;;;;6351022;22;20072;-82
2022/03/06 14:08:42;;;;;;;7.88;2.67;;;;;;;;;;6242056;23;20419;-82
2022/03/06 14:11:28;;;;;;;3.88;2.35;;;;;;;;;;6215050;23;20039;-86
2022/03/06 14:13:58;;;;;;;5.60;3.20;;;;;;;;;;6250890;22;20108;-86
2022/03/06 14:16:32;;;;;;;4.88;2.60;;;;;;;;;;6248710;22;20559;-85
2022/03/06 14:19:01;;;;;;;6.00;2.88;;;;;;;;;;6250421;22;20467;-85
2022/03/06 14:21:34;;;;;;;5.32;2.80;;;;;;;;;;6250968;22;20024;-85
2022/03/06 14:24:06;;;;;;;5.80;3.08;;;;;;;;;;6248001;22;20023;-85
2022/03/06 14:26:41;;;;;;;8.02;3.20;;;;;;;;;;6251917;22;20023;-84
2022/03/06 14:29:15;;;;;;;5.07;2.92;;;;;;;;;;6245404;22;20023;-84
2022/03/06 14:31:51;;;;;;;8.15;2.90;;;;;;;;;;6242888;23;20086;-84
2022/03/06 14:34:22;;;;;;;5.40;3.03;;;;;;;;;;6241514;23;20036;-84
2022/03/06 14:36:50;;;;;;;6.55;3.08;;;;;;;;;;6210915;23;20384;-84
2022/03/06 14:39:18;;;;;;;6.85;2.85;;;;;;;;;;6284734;22;20129;-84
2022/03/06 14:41:46;;;;;;;5.07;2.40;;;;;;;;;;6372828;22;20033;-84
2022/03/06 14:44:16;;;;;;;6.00;2.80;;;;;;;;;;6308924;22;20030;-83
2022/03/06 14:46:44;;;;;;;4.57;2.70;;;;;;;;;;6344030;22;20010;-86
2022/03/06 14:49:13;;;;;;;5.63;2.42;;;;;;;;;;6370736;22;20340;-86
2022/03/06 14:51:40;;;;;;;6.05;2.42;;;;;;;;;;6344763;22;20022;-85
2022/03/06 14:54:09;;;;;;;4.35;2.13;;;;;;;;;;6343693;22;20022;-87
2022/03/06 14:56:51;;;;;;;5.40;2.30;;;;;;;;;;6320432;22;20022;-87
2022/03/06 14:59:28;;;;;;;7.45;3.20;;;;;;;;;;6310394;22;20022;-87
2022/03/06 15:08:35;;;;;;;4.55;2.08;;;;;;;;;;6226776;22;20169;-86
2022/03/06 15:12:39;;;;;;;7.10;2.35;;;;;;;;;;6125645;23;20136;-87
2022/03/06 15:16:01;;;;;;;6.13;2.38;;;;;;;;;;6090866;23;20064;-88
2022/03/06 15:18:44;;;;;;;5.22;2.53;;;;;;;;;;6068804;23;20470;-82
2022/03/06 15:21:19;;;;;;;4.65;2.45;;;;;;;;;;6110711;23;20071;-85
2022/03/06 15:24:27;;;;;;;4.05;2.20;;;;;;;;;;6092697;23;20057;-85
2022/03/06 15:27:25;;;;;;;5.40;2.42;;;;;;;;;;6049193;23;20045;-85
2022/03/06 15:30:07;;;;;;;7.65;2.33;;;;;;;;;;6102723;23;20022;-85
2022/03/06 15:32:48;;;;;;;5.85;2.50;;;;;;;;;;6107866;23;20028;-85
2022/03/06 15:35:18;;;;;;;4.00;2.20;;;;;;;;;;6183960;23;20087;-81
2022/03/06 15:37:46;;;;;;;5.78;3.20;;;;;;;;;;6182185;23;20017;-81
2022/03/06 15:40:14;;;;;;;4.60;2.33;;;;;;;;;;6182240;23;20586;-84